Murrayville, Georgia
Current Conditions -  °F | °C
As of 10:53 AM on Saturday 25 Oct 2014 (Local Time) from KGVL Reporting Station
Clear Clear  
Wind Chill: 61°   Ceiling: Unl
Heat Index: 61°   Visibility: 10mi
Dew Point: 41°   Wind: 0mph
Humidity: 48%   Direction: NA
Pressure: 30.09"   Gusts: NA
Location:  34.42°N, 83.91°W
Report Text: KGVL 251453Z AUTO 00000KT 10SM CLR 16/05 A3009 RMK AO2 SLP183 T01610050 51010
Loading
Personal Weather Stations






























Interactive Weather Map
Tropical Storm Tracking
New forecast layout! Learn more

10-Day Weather Forecast

Advertisements
Track Severe Weather on mobile